Time;durP1;ratioP1;P1;durP2;ratioP2;P2;SDS_P1;SDS_P2;PMS_P1;PMS_P2;Temp;Humidity;BMP_temperature;BMP_pressure;BME280_temperature;BME280_humidity;BME280_pressure;Samples;Min_cycle;Max_cycle;Signal;HPM_P1;HPM_P2
2021/09/02 00:01:29;;;;;;;7.00;3.85;;;;;;;12.52;70.40;101681.28;1687948;83;21077;-78
2021/09/02 00:03:56;;;;;;;4.90;3.85;;;;;;;12.47;70.50;101688.27;1705628;83;20971;-78
2021/09/02 00:06:22;;;;;;;5.95;3.98;;;;;;;12.42;70.52;101680.95;1699547;83;21064;-78
2021/09/02 00:08:48;;;;;;;5.20;3.47;;;;;;;12.39;70.54;101683.57;1699486;83;21077;-78
2021/09/02 00:11:18;;;;;;;4.72;4.00;;;;;;;12.35;70.57;101692.23;1709203;83;21049;-78
2021/09/02 00:13:44;;;;;;;5.00;4.25;;;;;;;12.33;70.78;101687.93;1686260;83;21008;-78
2021/09/02 00:16:10;;;;;;;5.20;3.85;;;;;;;12.32;70.72;101685.77;1700013;83;21048;-78
2021/09/02 00:18:38;;;;;;;6.60;3.90;;;;;;;12.27;70.59;101683.64;1672862;83;21297;-78
2021/09/02 00:21:07;;;;;;;5.50;3.42;;;;;;;12.24;70.78;101684.52;1687595;82;22200;-78
2021/09/02 00:23:34;;;;;;;5.12;4.17;;;;;;;12.21;70.76;101681.08;1692350;83;20945;-78
2021/09/02 00:26:02;;;;;;;5.30;4.65;;;;;;;12.17;70.82;101689.31;1706241;83;21035;-78
2021/09/02 00:28:29;;;;;;;5.03;4.10;;;;;;;12.12;70.82;101688.47;1702746;83;21016;-78
2021/09/02 00:30:55;;;;;;;7.42;4.15;;;;;;;12.11;70.88;101690.64;1686053;83;21100;-78
2021/09/02 00:33:21;;;;;;;5.15;4.55;;;;;;;12.07;70.90;101690.66;1680892;84;21153;-78
2021/09/02 00:35:48;;;;;;;4.85;3.90;;;;;;;12.04;70.94;101691.97;1681523;83;21112;-78
2021/09/02 00:38:15;;;;;;;6.92;4.45;;;;;;;12.00;70.96;101695.02;1707764;83;21068;-78
2021/09/02 00:40:41;;;;;;;;;;;;;;;11.99;71.03;101695.02;1674389;83;21078;-78
2021/09/02 00:43:07;;;;;;;6.87;4.03;;;;;;;11.94;71.33;101698.95;1696619;82;20243;-78
2021/09/02 00:45:33;;;;;;;5.75;4.37;;;;;;;11.90;71.11;101699.41;1700460;83;21069;-78
2021/09/02 00:48:00;;;;;;;9.05;4.30;;;;;;;11.86;71.11;101703.31;1683752;83;21537;-78
2021/09/02 00:50:30;;;;;;;5.28;4.10;;;;;;;11.84;71.27;101698.13;1693080;83;20961;-78
2021/09/02 00:53:00;;;;;;;4.17;3.62;;;;;;;11.81;71.18;101694.26;1720312;82;21067;-78
2021/09/02 00:55:30;;;;;;;7.22;4.40;;;;;;;11.79;71.26;101697.72;1693404;82;21496;-78
2021/09/02 00:57:56;;;;;;;5.65;4.28;;;;;;;11.77;71.28;101696.86;1707974;82;20965;-78
2021/09/02 01:00:22;;;;;;;6.45;4.28;;;;;;;11.74;71.34;101699.43;1698929;82;20905;-78
2021/09/02 01:02:48;;;;;;;6.90;3.42;;;;;;;11.73;71.44;101696.41;1693815;82;20972;-78
2021/09/02 01:05:19;;;;;;;7.40;3.90;;;;;;;11.71;71.44;101692.96;1687231;82;20933;-78
2021/09/02 01:07:46;;;;;;;5.85;3.22;;;;;;;11.68;71.38;101700.74;1648290;84;21013;-78
2021/09/02 01:10:13;;;;;;;;;;;;;;;11.65;71.39;101701.61;1699306;82;20940;-78
2021/09/02 01:12:49;;;;;;;4.78;3.42;;;;;;;11.63;71.73;101703.78;1716259;82;20101;-78
2021/09/02 01:15:27;;;;;;;4.67;3.80;;;;;;;11.57;71.40;101705.95;1687686;82;20986;-78
2021/09/02 01:18:00;;;;;;;5.08;3.22;;;;;;;11.52;71.49;101704.67;1727826;82;20905;-78
2021/09/02 01:20:30;;;;;;;4.55;2.98;;;;;;;11.49;71.48;101711.58;1718113;82;20972;-78
2021/09/02 01:23:02;;;;;;;5.00;3.83;;;;;;;11.44;71.56;101705.12;1694831;82;20980;-78
2021/09/02 01:25:32;;;;;;;7.50;3.25;;;;;;;11.42;71.55;101707.31;1701358;82;20941;-78
2021/09/02 01:28:03;;;;;;;4.08;3.55;;;;;;;11.39;71.59;101703.44;1697721;82;20921;-78
2021/09/02 01:30:36;;;;;;;5.62;3.30;;;;;;;11.34;71.58;101706.47;1718299;82;20913;-78
2021/09/02 01:33:03;;;;;;;3.83;3.20;;;;;;;11.28;71.64;101704.75;1727215;82;20913;-78
2021/09/02 01:35:32;;;;;;;;;;;;;;;11.23;71.69;101699.57;1715150;82;20905;-78
2021/09/02 01:38:07;;;;;;;4.25;2.95;;;;;;;11.21;71.99;101701.73;1698610;82;20233;-78
2021/09/02 01:40:40;;;;;;;6.97;3.87;;;;;;;11.14;71.79;101694.84;1701050;82;21505;-78
2021/09/02 01:43:14;;;;;;;4.65;3.40;;;;;;;11.11;71.75;101700.88;1720740;82;21035;-78
2021/09/02 01:45:40;;;;;;;4.50;3.30;;;;;;;11.08;71.86;101699.58;1693999;82;21068;-78
2021/09/02 01:48:07;;;;;;;4.00;3.35;;;;;;;11.05;71.82;101696.13;1701228;82;21040;-78
2021/09/02 01:50:40;;;;;;;5.72;3.60;;;;;;;11.00;71.83;101701.74;1716258;82;21035;-78
2021/09/02 01:53:10;;;;;;;5.28;3.37;;;;;;;10.95;71.83;101698.72;1689724;82;21514;-78
2021/09/02 01:55:37;;;;;;;6.97;3.42;;;;;;;10.91;71.84;101699.62;1698300;82;20981;-78
2021/09/02 01:58:04;;;;;;;4.65;3.50;;;;;;;10.88;71.93;101693.58;1695853;82;22077;-78
2021/09/02 02:00:30;;;;;;;4.92;3.20;;;;;;;10.85;71.87;101690.99;1700706;82;26509;-78
2021/09/02 02:02:56;;;;;;;5.78;3.33;;;;;;;10.80;71.93;101694.87;1698480;82;21058;-78
2021/09/02 02:05:23;;;;;;;6.45;4.55;;;;;;;10.76;71.90;101693.14;1703703;82;21084;-78
2021/09/02 02:07:52;;;;;;;4.33;3.92;;;;;;;10.72;71.95;101690.13;1669634;82;21069;-78
2021/09/02 02:10:22;;;;;;;7.75;4.37;;;;;;;10.69;72.01;101693.14;1707664;82;21037;-78
2021/09/02 02:12:49;;;;;;;6.17;3.70;;;;;;;10.68;72.10;101694.00;1698212;82;21036;-78
2021/09/02 02:15:16;;;;;;;5.65;3.60;;;;;;;10.63;72.06;101695.28;1706059;82;21116;-78
2021/09/02 02:17:42;;;;;;;4.85;3.98;;;;;;;10.61;72.14;101698.30;1707283;82;20974;-78
2021/09/02 02:20:11;;;;;;;4.58;3.62;;;;;;;10.59;72.12;101696.14;1724516;82;21115;-78
2021/09/02 02:22:38;;;;;;;6.42;3.10;;;;;;;10.55;72.08;101693.98;1701623;82;21013;-78
2021/09/02 02:25:07;;;;;;;4.55;3.30;;;;;;;10.49;72.06;101695.27;1704758;82;21044;-78
2021/09/02 02:27:41;;;;;;;3.98;2.80;;;;;;;10.45;72.11;101696.12;1641702;85;21150;-78
2021/09/02 02:30:13;;;;;;;3.72;3.00;;;;;;;10.42;72.29;101696.55;1662492;85;21313;-78
2021/09/02 02:32:40;;;;;;;5.58;3.83;;;;;;;10.40;72.20;101700.42;1665298;85;21073;-78
2021/09/02 02:35:09;;;;;;;3.90;3.15;;;;;;;10.38;72.23;101697.43;1634432;84;21052;-78
2021/09/02 02:37:36;;;;;;;3.95;3.55;;;;;;;10.34;72.23;101698.28;1709280;82;21580;-78
2021/09/02 02:40:04;;;;;;;5.83;3.80;;;;;;;10.31;72.30;101697.84;1693375;82;21537;-78
2021/09/02 02:42:30;;;;;;;4.15;3.17;;;;;;;10.29;72.28;101702.14;1708840;82;20918;-78
2021/09/02 02:44:57;;;;;;;4.62;3.50;;;;;;;10.26;72.37;101699.55;1708613;82;20910;-78
2021/09/02 02:47:23;;;;;;;3.45;3.10;;;;;;;10.23;72.41;101697.82;1708967;82;20883;-78
2021/09/02 02:49:49;;;;;;;5.42;3.10;;;;;;;10.22;72.50;101694.80;1717164;82;20898;-78
2021/09/02 02:52:16;;;;;;;3.25;2.70;;;;;;;10.21;72.44;101693.50;1717570;81;20949;-78
2021/09/02 02:54:42;;;;;;;3.65;2.62;;;;;;;10.18;72.45;101690.45;1709526;82;20873;-78
2021/09/02 02:57:08;;;;;;;6.05;3.70;;;;;;;10.14;72.46;101683.55;1712217;82;21562;-78
2021/09/02 02:59:35;;;;;;;3.72;3.05;;;;;;;10.11;72.42;101682.24;1689936;82;21378;-78
2021/09/02 03:02:01;;;;;;;4.22;3.20;;;;;;;10.08;72.45;101684.81;1697089;82;21402;-78
2021/09/02 03:04:30;;;;;;;6.03;4.00;;;;;;;10.06;72.50;101683.09;1713783;82;21351;-78
2021/09/02 03:06:56;;;;;;;4.17;3.55;;;;;;;10.04;72.57;101683.08;1713283;82;21530;-78
2021/09/02 03:09:22;;;;;;;7.08;4.25;;;;;;;10.03;72.58;101681.78;1678573;82;21426;-78
2021/09/02 03:11:48;;;;;;;7.28;4.40;;;;;;;10.03;72.61;101687.81;1716665;82;21354;-78
2021/09/02 03:14:15;;;;;;;6.10;4.03;;;;;;;10.02;72.69;101680.92;1728288;82;21367;-78
2021/09/02 03:16:41;;;;;;;5.12;3.98;;;;;;;10.02;72.71;101685.22;1712056;82;21408;-78
2021/09/02 03:19:07;;;;;;;5.65;4.12;;;;;;;10.00;72.72;101682.63;1687729;82;20901;-78
2021/09/02 03:21:34;;;;;;;4.95;3.02;;;;;;;9.98;72.70;101680.47;1720982;82;20969;-78
2021/09/02 03:24:00;;;;;;;4.83;2.95;;;;;;;9.94;72.68;101685.19;1658105;85;21442;-78
2021/09/02 03:26:26;;;;;;;4.45;3.15;;;;;;;9.93;72.89;101683.47;1707029;82;20905;-78
2021/09/02 03:28:52;;;;;;;3.70;3.05;;;;;;;9.92;72.82;101683.89;1716153;82;20932;-78
2021/09/02 03:31:18;;;;;;;5.47;3.70;;;;;;;9.90;72.79;101688.63;1706373;82;21080;-78
2021/09/02 03:33:45;;;;;;;3.35;3.05;;;;;;;9.86;72.84;101690.36;1711812;82;21504;-78
2021/09/02 03:36:12;;;;;;;4.53;3.47;;;;;;;9.71;72.69;101673.50;1684831;82;21510;-78
2021/09/02 03:38:38;;;;;;;4.55;3.55;;;;;;;9.71;72.69;101673.50;1718444;82;21839;-78
2021/09/02 03:41:06;;;;;;;4.03;3.17;;;;;;;9.78;72.85;101698.50;1706059;82;21512;-78
2021/09/02 03:43:32;;;;;;;3.47;2.92;;;;;;;9.75;72.86;101692.03;1723514;82;21539;-78
2021/09/02 03:45:59;;;;;;;4.10;3.65;;;;;;;9.73;72.89;101692.45;1679221;83;21549;-78
2021/09/02 03:48:27;;;;;;;3.77;3.30;;;;;;;9.71;72.87;101695.88;1705029;82;21488;-78
2021/09/02 03:50:53;;;;;;;4.47;3.17;;;;;;;9.68;72.90;101698.45;1685083;82;21837;-78
2021/09/02 03:53:20;;;;;;;3.98;3.55;;;;;;;9.64;72.93;101697.57;1718566;82;20971;-78
2021/09/02 03:55:47;;;;;;;6.70;3.02;;;;;;;9.62;72.99;101700.14;1714712;82;22162;-78
2021/09/02 03:58:13;;;;;;;3.67;2.72;;;;;;;9.61;73.07;101701.00;1692179;82;21015;-78
2021/09/02 04:00:39;;;;;;;2.92;2.52;;;;;;;9.61;73.08;101698.42;1716461;82;21103;-78
2021/09/02 04:03:05;;;;;;;3.10;2.52;;;;;;;9.59;73.13;101696.25;1703590;82;21116;-77
2021/09/02 04:05:32;;;;;;;6.28;2.50;;;;;;;9.58;73.07;101699.69;1708317;82;21535;-77
2021/09/02 04:07:58;;;;;;;3.42;2.15;;;;;;;9.56;73.11;101700.53;1695545;82;27305;-77
2021/09/02 04:10:25;;;;;;;3.67;2.87;;;;;;;9.56;73.20;101698.82;1697845;82;21413;-77
2021/09/02 04:12:51;;;;;;;2.67;2.02;;;;;;;9.55;73.18;101694.94;1698792;82;22203;-77
2021/09/02 04:15:18;;;;;;;2.65;2.30;;;;;;;9.54;73.20;101699.23;1711201;82;21698;-77
2021/09/02 04:17:44;;;;;;;3.92;2.47;;;;;;;9.53;73.20;101695.36;1689172;83;21397;-77
2021/09/02 04:20:12;;;;;;;2.25;1.92;;;;;;;9.52;73.19;101697.08;1708658;82;21090;-77
2021/09/02 04:22:38;;;;;;;3.30;2.83;;;;;;;9.52;73.27;101697.50;1711221;82;22130;-79
2021/09/02 04:25:05;;;;;;;4.20;3.12;;;;;;;9.52;73.28;101698.80;1723961;82;21634;-79
2021/09/02 04:27:32;;;;;;;5.35;3.27;;;;;;;9.55;73.33;101707.84;1714017;82;21429;-79
2021/09/02 04:29:58;;;;;;;4.60;3.85;;;;;;;9.55;73.37;101708.71;1696247;82;21488;-80
2021/09/02 04:32:24;;;;;;;3.70;3.37;;;;;;;9.56;73.36;101704.41;1713883;81;465577;-79
2021/09/02 04:34:50;;;;;;;5.20;3.35;;;;;;;9.57;73.56;101707.43;1636505;82;22529;-79
2021/09/02 04:37:17;;;;;;;3.45;2.50;;;;;;;9.61;73.58;101706.59;1703173;82;21824;-79
2021/09/02 04:39:43;;;;;;;5.28;2.33;;;;;;;9.65;73.56;101715.22;1725019;82;21543;-79
2021/09/02 04:42:10;;;;;;;6.15;2.47;;;;;;;9.65;73.52;101714.80;1715157;82;22116;-79
2021/09/02 04:44:36;;;;;;;;;;;;;;;9.65;73.53;101712.20;1711876;82;22239;-79
2021/09/02 04:47:02;;;;;;;4.03;2.87;;;;;;;9.66;73.83;101707.48;1711606;82;20203;-79
2021/09/02 04:49:29;;;;;;;3.55;2.90;;;;;;;9.68;73.68;101706.20;1677959;82;21555;-80
2021/09/02 04:51:55;;;;;;;2.90;2.33;;;;;;;9.74;73.84;101710.97;1711420;82;21556;-80
2021/09/02 04:54:25;;;;;;;2.20;1.95;;;;;;;9.75;73.69;101704.95;1711139;82;21336;-80
2021/09/02 04:56:51;;;;;;;2.75;2.30;;;;;;;9.76;73.73;101704.09;1626562;82;21060;-80
2021/09/02 04:59:18;;;;;;;4.95;3.05;;;;;;;9.78;73.74;101701.52;1709869;82;21534;-80
2021/09/02 05:01:45;;;;;;;5.85;3.83;;;;;;;9.80;73.90;101703.25;1716757;82;20989;-80
2021/09/02 05:04:12;;;;;;;4.87;3.87;;;;;;;9.85;73.94;101709.73;1704410;82;21548;-80
2021/09/02 05:06:39;;;;;;;7.15;5.17;;;;;;;9.91;73.95;101713.17;1716540;82;21619;-80
2021/09/02 05:09:06;;;;;;;15.13;7.40;;;;;;;10.00;74.13;101714.94;1723216;82;21607;-80
2021/09/02 05:11:32;;;;;;;14.40;6.80;;;;;;;10.12;74.16;101717.99;1702935;82;21038;-80
2021/09/02 05:13:58;;;;;;;17.62;7.28;;;;;;;10.27;74.29;101718.08;1727025;82;21515;-80
2021/09/02 05:16:25;;;;;;;18.87;8.43;;;;;;;10.44;74.21;101721.97;1708030;82;21889;-80
2021/09/02 05:18:51;;;;;;;18.37;8.15;;;;;;;10.62;74.28;101722.02;1714042;82;21081;-80
2021/09/02 05:21:18;;;;;;;19.73;9.10;;;;;;;10.85;74.35;101716.44;1702681;82;21512;-80
2021/09/02 05:23:48;;;;;;;23.92;11.57;;;;;;;11.09;74.42;101714.69;1700880;82;21067;-80
2021/09/02 05:26:14;;;;;;;27.02;11.85;;;;;;;11.28;74.39;101708.63;1698673;82;21008;-80
2021/09/02 05:28:41;;;;;;;22.62;11.10;;;;;;;11.46;74.32;101712.89;1705409;82;21176;-80
2021/09/02 05:31:16;;;;;;;20.30;11.60;;;;;;;11.56;74.30;101710.70;1685615;82;21028;-80
2021/09/02 05:33:42;;;;;;;19.75;9.60;;;;;;;11.64;74.33;101717.16;1706107;82;21138;-80
2021/09/02 05:36:10;;;;;;;19.00;9.80;;;;;;;11.70;74.40;101718.01;1702649;82;22170;-80
2021/09/02 05:38:36;;;;;;;15.18;9.78;;;;;;;11.77;74.42;101720.19;1715032;82;21072;-80
2021/09/02 05:41:03;;;;;;;14.45;9.73;;;;;;;11.84;74.46;101721.89;1713122;82;21670;-80
2021/09/02 05:43:29;;;;;;;11.22;7.65;;;;;;;11.91;74.53;101717.11;1720431;82;21674;-80
2021/09/02 05:45:55;;;;;;;11.85;6.87;;;;;;;11.99;74.56;101721.80;1670807;82;21141;-80
2021/09/02 05:48:22;;;;;;;9.50;6.85;;;;;;;12.11;74.64;101721.75;1703671;82;21428;-80
2021/09/02 05:50:50;;;;;;;11.83;6.80;;;;;;;12.33;74.80;101727.70;1702564;82;21091;-80
2021/09/02 05:53:17;;;;;;;13.95;6.85;;;;;;;12.58;74.82;101727.95;1709946;82;21057;-80
2021/09/02 05:55:44;;;;;;;6.67;5.60;;;;;;;12.84;74.89;101730.80;1699059;82;21107;-80
2021/09/02 05:58:10;;;;;;;;;;;;;;;13.08;74.81;101729.72;1698686;83;20918;-80
2021/09/02 06:00:37;;;;;;;9.20;5.95;;;;;;;13.29;75.06;101730.01;1701073;82;20101;-80
2021/09/02 06:03:03;;;;;;;11.85;6.28;;;;;;;13.47;74.87;101727.23;1715500;82;20898;-80
2021/09/02 06:05:30;;;;;;;8.78;6.37;;;;;;;13.68;74.86;101720.92;1704409;83;20930;-80
2021/09/02 06:07:57;;;;;;;6.17;5.58;;;;;;;13.88;74.84;101725.02;1698559;82;21426;-80
2021/09/02 06:10:23;;;;;;;6.22;5.50;;;;;;;14.15;74.94;101724.23;1701251;82;20890;-80
2021/09/02 06:12:50;;;;;;;6.70;5.97;;;;;;;14.43;74.88;101726.91;1699431;82;20965;-80
2021/09/02 06:15:16;;;;;;;6.25;5.60;;;;;;;14.75;74.93;101730.31;1692078;82;20886;-80
2021/09/02 06:17:44;;;;;;;6.33;5.25;;;;;;;15.09;74.95;101731.05;1696887;82;20874;-80
2021/09/02 06:20:11;;;;;;;6.20;5.08;;;;;;;15.41;74.79;101731.36;1690191;82;20862;-80
2021/09/02 06:22:38;;;;;;;6.05;5.05;;;;;;;15.77;74.85;101742.86;1698175;83;20938;-80
2021/09/02 06:25:06;;;;;;;6.45;4.60;;;;;;;16.09;74.72;101750.05;1683654;83;20946;-80
2021/09/02 06:27:32;;;;;;;5.53;5.03;;;;;;;16.43;74.77;101747.99;1691116;82;20969;-80
2021/09/02 06:30:03;;;;;;;5.72;4.53;;;;;;;16.78;74.82;101745.44;1695527;82;20906;-80
2021/09/02 06:32:29;;;;;;;8.43;4.75;;;;;;;17.09;74.66;101744.25;1703694;82;20882;-80
2021/09/02 06:34:56;;;;;;;4.17;3.77;;;;;;;17.36;74.70;101742.67;1678859;83;21850;-80
2021/09/02 06:37:23;;;;;;;4.50;4.10;;;;;;;17.65;74.67;101748.89;1697895;82;21290;-80
2021/09/02 06:39:50;;;;;;;7.00;3.98;;;;;;;17.93;74.66;101746.37;1700177;82;20918;-80
2021/09/02 06:42:16;;;;;;;5.70;4.40;;;;;;;18.48;74.44;101746.88;1695324;83;21374;-80
2021/09/02 06:44:45;;;;;;;6.80;4.85;;;;;;;18.48;74.44;101746.88;1693688;82;21382;-80
2021/09/02 06:47:11;;;;;;;4.22;3.80;;;;;;;18.77;74.54;101751.22;1697051;82;20897;-80
2021/09/02 06:49:37;;;;;;;5.55;4.03;;;;;;;19.07;74.42;101750.69;1708223;82;20905;-81
2021/09/02 06:52:04;;;;;;;7.30;3.95;;;;;;;19.32;74.26;101741.05;1687708;83;20965;-79
2021/09/02 06:54:32;;;;;;;4.28;3.87;;;;;;;19.56;74.23;101740.70;1694370;83;20909;-81
2021/09/02 06:56:58;;;;;;;5.50;4.10;;;;;;;19.75;73.95;101746.14;1701254;83;20957;-81
2021/09/02 06:59:28;;;;;;;4.03;3.60;;;;;;;19.88;74.08;101746.08;1695065;83;20940;-81
2021/09/02 07:01:57;;;;;;;4.33;3.60;;;;;;;20.10;73.97;101747.45;1677591;83;20933;-81
2021/09/02 07:04:23;;;;;;;4.12;3.72;;;;;;;20.31;73.97;101749.23;1684301;83;21477;-81
2021/09/02 07:06:50;;;;;;;3.98;3.58;;;;;;;20.46;73.77;101749.99;1695140;83;20897;-81
2021/09/02 07:09:16;;;;;;;4.58;4.17;;;;;;;20.64;73.76;101749.73;1692082;83;20889;-81
2021/09/02 07:11:42;;;;;;;4.08;3.77;;;;;;;20.84;73.70;101748.90;1692228;83;20866;-81
2021/09/02 07:14:09;;;;;;;5.87;4.03;;;;;;;21.04;73.73;101751.57;1685515;83;20904;-81
2021/09/02 07:16:35;;;;;;;4.50;4.10;;;;;;;21.25;73.58;101749.00;1694095;83;20901;-81
2021/09/02 07:19:02;;;;;;;4.62;4.22;;;;;;;21.43;73.52;101750.36;1684873;83;20992;-81
2021/09/02 07:21:28;;;;;;;4.25;3.85;;;;;;;21.68;73.46;101746.20;1695910;83;20944;-81
2021/09/02 07:23:55;;;;;;;4.62;4.22;;;;;;;21.85;73.32;101749.83;1649694;84;20901;-81
2021/09/02 07:26:23;;;;;;;5.53;4.10;;;;;;;22.01;73.13;101745.58;1695204;83;20885;-81
2021/09/02 07:28:49;;;;;;;4.03;3.58;;;;;;;22.18;73.11;101743.52;1694373;83;20878;-81
2021/09/02 07:31:15;;;;;;;5.08;3.87;;;;;;;22.39;73.06;101745.13;1688870;83;21035;-81
2021/09/02 07:33:42;;;;;;;4.10;3.70;;;;;;;22.53;72.97;101747.97;1697603;83;21115;-81
2021/09/02 07:36:08;;;;;;;4.58;4.17;;;;;;;22.64;72.99;101749.63;1697365;83;21047;-81
2021/09/02 07:38:37;;;;;;;5.42;3.30;;;;;;;22.80;72.87;101753.73;1696712;83;21083;-81
2021/09/02 07:41:04;;;;;;;4.97;3.90;;;;;;;22.94;72.72;101747.74;1694716;83;21099;-81
2021/09/02 07:43:30;;;;;;;6.03;3.87;;;;;;;23.21;73.02;101754.28;1692940;83;21119;-82
2021/09/02 07:45:56;;;;;;;4.25;3.90;;;;;;;23.71;73.23;101748.18;1697539;83;21044;-82
2021/09/02 07:48:23;;;;;;;5.70;4.58;;;;;;;24.20;72.84;101760.91;1696855;83;21055;-81
2021/09/02 07:51:01;;;;;;;7.30;4.10;;;;;;;24.59;71.71;101756.53;1685322;83;21422;-81
2021/09/02 07:53:28;;;;;;;4.30;3.90;;;;;;;24.58;71.05;101745.56;1696966;83;21096;-81
2021/09/02 07:55:54;;;;;;;6.45;4.47;;;;;;;24.59;70.56;101765.78;1643036;84;21143;-81
2021/09/02 07:58:21;;;;;;;5.42;4.60;;;;;;;24.56;70.38;101767.27;1687826;83;21100;-81
2021/09/02 08:00:48;;;;;;;5.10;4.60;;;;;;;24.47;70.04;101774.88;1665863;84;21084;-81
2021/09/02 08:03:15;;;;;;;5.53;3.75;;;;;;;24.24;69.90;101772.16;1638193;85;21068;-81
2021/09/02 08:05:41;;;;;;;5.85;3.67;;;;;;;24.03;69.84;101762.29;1649872;85;21068;-81
2021/09/02 08:08:08;;;;;;;4.72;3.83;;;;;;;23.81;69.68;101774.50;1643435;85;21144;-81
2021/09/02 08:10:34;;;;;;;4.67;4.28;;;;;;;23.59;69.80;101772.13;1646710;85;21060;-81
2021/09/02 08:13:01;;;;;;;4.25;3.95;;;;;;;23.47;69.66;101772.72;1650866;83;21448;-81
2021/09/02 08:15:27;;;;;;;6.75;4.50;;;;;;;23.36;69.50;101781.22;1691580;83;21067;-81
2021/09/02 08:17:58;;;;;;;3.98;3.58;;;;;;;23.30;69.45;101778.89;1699501;83;21119;-81
2021/09/02 08:20:22;;;;;;;4.65;4.25;;;;;;;23.33;69.35;101778.73;1679834;83;21032;-81
2021/09/02 08:22:48;;;;;;;4.12;3.75;;;;;;;23.30;69.10;101776.72;1691631;83;21092;-81
2021/09/02 08:25:16;;;;;;;3.85;3.50;;;;;;;23.23;68.81;101766.94;1708807;83;21075;-81
2021/09/02 08:27:45;;;;;;;3.87;3.55;;;;;;;23.10;68.81;101774.61;1692963;83;21060;-81
2021/09/02 08:30:14;;;;;;;4.12;3.72;;;;;;;23.10;68.71;101775.93;1696103;81;21076;-81
2021/09/02 08:32:47;;;;;;;5.80;3.95;;;;;;;23.11;68.52;101774.14;1676018;83;21048;-81
2021/09/02 08:35:09;;;;;;;5.25;3.62;;;;;;;23.10;68.35;101769.80;1666305;84;21142;-81
2021/09/02 08:37:36;;;;;;;6.20;4.03;;;;;;;23.10;68.02;101771.97;1672826;84;21099;-81
2021/09/02 08:40:02;;;;;;;4.17;3.80;;;;;;;23.15;67.77;101767.78;1609769;84;21120;-81
2021/09/02 08:42:29;;;;;;;4.20;3.75;;;;;;;23.40;67.45;101772.65;1684344;84;21100;-81
2021/09/02 08:44:55;;;;;;;5.30;4.10;;;;;;;23.59;67.41;101772.13;1681652;84;21114;-81
2021/09/02 08:47:27;;;;;;;3.80;3.47;;;;;;;23.89;67.78;101775.41;1664762;84;21148;-81
2021/09/02 08:49:54;;;;;;;5.45;3.92;;;;;;;24.27;68.25;101776.00;1679467;84;21063;-81
2021/09/02 08:52:22;;;;;;;4.00;3.70;;;;;;;24.80;68.75;101781.38;1673411;84;21147;-81
2021/09/02 08:54:50;;;;;;;4.03;3.72;;;;;;;25.55;68.86;101774.70;1628655;85;21028;-81
2021/09/02 08:57:16;;;;;;;5.95;3.75;;;;;;;26.35;68.51;101778.61;1646996;84;20981;-81
2021/09/02 08:59:43;;;;;;;5.83;3.87;;;;;;;27.04;67.67;101777.13;1667733;84;20894;-81
2021/09/02 09:02:28;;;;;;;3.92;3.58;;;;;;;27.61;66.84;101771.48;1674793;84;20972;-81
2021/09/02 09:05:10;;;;;;;6.08;4.03;;;;;;;27.07;65.18;101772.09;1671327;84;20933;-81
2021/09/02 09:07:50;;;;;;;3.75;3.40;;;;;;;25.64;65.13;101774.64;1635999;84;20954;-81
2021/09/02 09:10:26;;;;;;;3.92;3.62;;;;;;;24.69;65.20;101774.91;1679764;84;21405;-81
2021/09/02 09:12:58;;;;;;;;;;;;;;;24.03;65.26;101763.61;1642612;84;20981;-81
2021/09/02 09:15:34;;;;;;;3.52;3.22;;;;;;;23.60;64.22;101772.98;1680665;84;20276;-81
2021/09/02 09:18:21;;;;;;;4.62;3.90;;;;;;;23.21;64.58;101769.27;1681656;84;20873;-81
2021/09/02 09:21:13;;;;;;;7.90;3.12;;;;;;;22.83;64.41;101769.87;1660955;84;21027;-81
2021/09/02 09:24:01;;;;;;;3.37;3.08;;;;;;;22.51;64.33;101767.41;1673692;84;21126;-81
2021/09/02 09:26:27;;;;;;;4.10;3.70;;;;;;;22.26;64.08;101766.42;1678234;84;21072;-81
2021/09/02 09:29:03;;;;;;;3.98;3.60;;;;;;;22.06;63.80;101769.97;1665320;84;21096;-81
2021/09/02 09:31:37;;;;;;;4.83;3.60;;;;;;;21.82;63.56;101766.66;1666691;84;21129;-81
2021/09/02 09:34:06;;;;;;;4.03;3.62;;;;;;;21.70;63.52;101767.19;1646671;84;21068;-81
2021/09/02 09:36:36;;;;;;;4.25;3.85;;;;;;;21.60;63.32;101764.11;1674225;84;20989;-81
2021/09/02 09:39:06;;;;;;;5.10;3.65;;;;;;;21.53;63.27;101761.80;1677930;84;20925;-81
2021/09/02 09:41:41;;;;;;;3.87;3.52;;;;;;;21.46;63.06;101762.53;1666632;84;21433;-81
2021/09/02 09:44:24;;;;;;;4.90;3.52;;;;;;;21.42;62.97;101760.95;1661976;84;21109;-81
2021/09/02 09:47:11;;;;;;;4.75;4.35;;;;;;;21.43;62.92;101758.71;1633272;85;21150;-81
2021/09/02 09:49:44;;;;;;;4.33;3.80;;;;;;;21.45;62.68;101760.81;1665107;84;21068;-81
2021/09/02 09:52:33;;;;;;;3.62;3.33;;;;;;;21.37;62.48;101758.52;1664776;84;21112;-81
2021/09/02 09:55:12;;;;;;;6.45;3.75;;;;;;;21.36;62.40;101763.38;1671762;83;21053;-81
2021/09/02 09:57:41;;;;;;;6.35;3.95;;;;;;;21.37;62.30;101762.92;1672308;84;21414;-81
2021/09/02 10:00:17;;;;;;;4.65;3.72;;;;;;;21.39;62.24;101761.94;1641349;85;20893;-81
2021/09/02 10:02:47;;;;;;;6.03;3.20;;;;;;;21.41;62.07;101760.55;1697801;83;21021;-81
2021/09/02 10:05:16;;;;;;;4.45;3.80;;;;;;;21.40;61.95;101757.53;1695361;83;21657;-81
2021/09/02 10:07:45;;;;;;;5.05;4.40;;;;;;;21.34;61.70;101765.69;1702805;83;20937;-81
2021/09/02 10:10:15;;;;;;;4.05;3.65;;;;;;;21.34;61.75;101757.33;1702369;82;20882;-81
2021/09/02 10:12:45;;;;;;;3.83;3.52;;;;;;;21.41;61.74;101757.92;1677209;83;20977;-81
2021/09/02 10:15:15;;;;;;;5.50;4.22;;;;;;;21.48;61.67;101764.17;1699819;83;20918;-81
2021/09/02 10:17:45;;;;;;;4.90;4.00;;;;;;;21.53;61.44;101764.44;1687883;83;20930;-81
2021/09/02 10:20:22;;;;;;;4.45;4.05;;;;;;;21.53;61.30;101762.66;1701305;83;20961;-81
2021/09/02 10:23:00;;;;;;;4.90;3.20;;;;;;;21.55;61.19;101762.59;1680269;83;20965;-81
2021/09/02 10:25:38;;;;;;;5.65;3.72;;;;;;;21.58;61.28;101747.52;1681983;84;20937;-81
2021/09/02 10:28:17;;;;;;;4.00;3.42;;;;;;;21.67;61.08;101752.39;1696591;83;20973;-81
2021/09/02 10:30:49;;;;;;;4.00;3.70;;;;;;;21.74;60.97;101749.02;1695645;83;20945;-81
2021/09/02 10:33:46;;;;;;;3.87;3.58;;;;;;;21.76;60.75;101741.45;1702200;83;20894;-81
2021/09/02 10:36:18;;;;;;;4.40;4.00;;;;;;;21.77;60.62;101744.94;1690901;82;21119;-81
2021/09/02 10:38:54;;;;;;;4.53;4.12;;;;;;;21.77;60.59;101744.94;1681498;82;21762;-81
2021/09/02 10:41:41;;;;;;;4.33;3.92;;;;;;;21.77;60.51;101740.53;1696134;83;20981;-81
2021/09/02 10:44:17;;;;;;;3.52;3.22;;;;;;;21.76;60.41;101740.12;1682223;83;21429;-81
2021/09/02 10:46:49;;;;;;;6.10;3.35;;;;;;;21.76;60.35;101755.93;1699046;82;21429;-81
2021/09/02 10:49:26;;;;;;;3.80;3.50;;;;;;;21.65;60.02;101745.02;1698309;84;20913;-81
2021/09/02 10:52:05;;;;;;;4.53;4.12;;;;;;;21.56;60.12;101741.47;1687858;82;20873;-81
2021/09/02 10:54:38;;;;;;;3.70;3.40;;;;;;;21.59;60.12;101738.70;1692561;83;20917;-81
2021/09/02 10:57:08;;;;;;;3.92;3.62;;;;;;;21.60;59.93;101741.73;1686210;84;20949;-81
2021/09/02 10:59:51;;;;;;;4.95;3.45;;;;;;;21.60;59.75;101734.30;1684258;83;20917;-81
2021/09/02 11:02:28;;;;;;;6.35;3.72;;;;;;;21.65;59.73;101748.11;1693850;83;21088;-81
2021/09/02 11:05:01;;;;;;;5.05;3.95;;;;;;;21.67;59.69;101744.48;1676354;84;20968;-81
2021/09/02 11:07:43;;;;;;;4.97;2.98;;;;;;;21.72;59.54;101753.04;1638892;84;20945;-81
2021/09/02 11:10:21;;;;;;;3.22;2.92;;;;;;;21.74;59.21;101751.19;1684246;83;20885;-81
2021/09/02 11:13:05;;;;;;;3.75;3.45;;;;;;;21.71;59.30;101746.06;1678383;84;20969;-81
2021/09/02 11:15:32;;;;;;;4.12;3.00;;;;;;;21.69;59.09;101748.37;1698431;83;21095;-81
2021/09/02 11:18:04;;;;;;;5.28;3.10;;;;;;;21.66;59.11;101737.52;1699997;83;26537;-81
2021/09/02 11:20:35;;;;;;;4.20;3.15;;;;;;;21.66;58.90;101736.20;1688517;83;21107;-81
2021/09/02 11:23:15;;;;;;;4.00;3.70;;;;;;;21.68;58.94;101741.39;1676181;84;21111;-81
2021/09/02 11:25:45;;;;;;;3.77;3.47;;;;;;;21.74;58.93;101735.39;1694734;84;21021;-81
2021/09/02 11:28:20;;;;;;;3.15;2.87;;;;;;;21.78;58.40;101740.06;1690015;82;21098;-81
2021/09/02 11:30:48;;;;;;;3.62;3.30;;;;;;;21.66;58.38;101740.61;1692065;83;21037;-81
2021/09/02 11:33:16;;;;;;;5.50;3.47;;;;;;;21.61;58.49;101730.28;1703982;82;21314;-81
2021/09/02 11:35:42;;;;;;;3.58;2.95;;;;;;;21.66;58.47;101727.44;1681603;84;20875;-81